sensor_id;sensor_type;location;lat;lon;timestamp;temperature;humidity
51908;DHT22;39320;53.214;6.556;2022-11-15T00:01:27;9.50;99.90
51908;DHT22;39320;53.214;6.556;2022-11-15T00:03:52;9.50;99.90
51908;DHT22;39320;53.214;6.556;2022-11-15T00:06:18;9.60;99.90
51908;DHT22;39320;53.214;6.556;2022-11-15T00:08:44;9.50;99.90
51908;DHT22;39320;53.214;6.556;2022-11-15T00:11:11;9.50;99.90
51908;DHT22;39320;53.214;6.556;2022-11-15T00:13:37;9.50;99.90
51908;DHT22;39320;53.214;6.556;2022-11-15T00:16:03;9.50;99.90
51908;DHT22;39320;53.214;6.556;2022-11-15T00:18:30;9.50;99.90
51908;DHT22;39320;53.214;6.556;2022-11-15T00:20:56;9.50;99.90
51908;DHT22;39320;53.214;6.556;2022-11-15T00:23:27;9.50;99.90
51908;DHT22;39320;53.214;6.556;2022-11-15T00:25:57;9.50;99.90
51908;DHT22;39320;53.214;6.556;2022-11-15T00:28:23;9.40;99.90
51908;DHT22;39320;53.214;6.556;2022-11-15T00:30:49;9.40;99.90
51908;DHT22;39320;53.214;6.556;2022-11-15T00:33:15;9.40;99.90
51908;DHT22;39320;53.214;6.556;2022-11-15T00:35:40;9.40;99.90
51908;DHT22;39320;53.214;6.556;2022-11-15T00:38:06;9.40;99.90
51908;DHT22;39320;53.214;6.556;2022-11-15T00:40:32;9.30;99.90
51908;DHT22;39320;53.214;6.556;2022-11-15T00:42:58;9.30;99.90
51908;DHT22;39320;53.214;6.556;2022-11-15T00:45:24;9.30;99.90
51908;DHT22;39320;53.214;6.556;2022-11-15T00:47:50;9.30;99.90
51908;DHT22;39320;53.214;6.556;2022-11-15T00:50:16;9.30;99.90
51908;DHT22;39320;53.214;6.556;2022-11-15T00:52:42;9.30;99.90
51908;DHT22;39320;53.214;6.556;2022-11-15T00:55:13;9.30;99.90
51908;DHT22;39320;53.214;6.556;2022-11-15T00:57:40;9.40;99.90
51908;DHT22;39320;53.214;6.556;2022-11-15T01:00:06;9.30;99.90
51908;DHT22;39320;53.214;6.556;2022-11-15T01:02:32;9.30;99.90
51908;DHT22;39320;53.214;6.556;2022-11-15T01:04:58;9.30;99.90
51908;DHT22;39320;53.214;6.556;2022-11-15T01:07:24;9.30;99.90
51908;DHT22;39320;53.214;6.556;2022-11-15T01:09:49;9.30;99.90
51908;DHT22;39320;53.214;6.556;2022-11-15T01:12:15;9.30;99.90
51908;DHT22;39320;53.214;6.556;2022-11-15T01:14:41;9.20;99.90
51908;DHT22;39320;53.214;6.556;2022-11-15T01:17:06;9.20;99.90
51908;DHT22;39320;53.214;6.556;2022-11-15T01:19:32;9.20;99.90
51908;DHT22;39320;53.214;6.556;2022-11-15T01:21:58;9.20;99.90
51908;DHT22;39320;53.214;6.556;2022-11-15T01:24:23;9.20;99.90
51908;DHT22;39320;53.214;6.556;2022-11-15T01:26:49;9.20;99.90
51908;DHT22;39320;53.214;6.556;2022-11-15T01:29:15;9.30;99.90
51908;DHT22;39320;53.214;6.556;2022-11-15T01:31:41;9.20;99.90
51908;DHT22;39320;53.214;6.556;2022-11-15T01:34:06;9.20;99.90
51908;DHT22;39320;53.214;6.556;2022-11-15T01:36:32;9.20;99.90
51908;DHT22;39320;53.214;6.556;2022-11-15T01:38:58;9.10;99.90
51908;DHT22;39320;53.214;6.556;2022-11-15T01:41:27;9.10;99.90
51908;DHT22;39320;53.214;6.556;2022-11-15T01:43:56;9.10;99.90
51908;DHT22;39320;53.214;6.556;2022-11-15T01:48:52;9.10;99.90
51908;DHT22;39320;53.214;6.556;2022-11-15T01:51:24;9.30;99.90
51908;DHT22;39320;53.214;6.556;2022-11-15T01:53:54;9.10;99.90
51908;DHT22;39320;53.214;6.556;2022-11-15T01:56:24;9.00;99.90
51908;DHT22;39320;53.214;6.556;2022-11-15T01:58:51;9.00;99.90
51908;DHT22;39320;53.214;6.556;2022-11-15T02:01:18;9.00;99.90
51908;DHT22;39320;53.214;6.556;2022-11-15T02:06:14;8.90;99.90
51908;DHT22;39320;53.214;6.556;2022-11-15T02:08:40;8.90;99.90
51908;DHT22;39320;53.214;6.556;2022-11-15T02:11:09;8.90;99.90
51908;DHT22;39320;53.214;6.556;2022-11-15T02:13:36;8.90;99.90
51908;DHT22;39320;53.214;6.556;2022-11-15T02:18:52;8.90;99.90
51908;DHT22;39320;53.214;6.556;2022-11-15T02:29:45;8.80;99.90
51908;DHT22;39320;53.214;6.556;2022-11-15T02:32:26;8.80;99.90
51908;DHT22;39320;53.214;6.556;2022-11-15T02:35:08;8.80;99.90
51908;DHT22;39320;53.214;6.556;2022-11-15T02:37:44;8.80;99.90
51908;DHT22;39320;53.214;6.556;2022-11-15T02:43:11;8.80;99.90
51908;DHT22;39320;53.214;6.556;2022-11-15T02:46:08;8.80;99.90
51908;DHT22;39320;53.214;6.556;2022-11-15T02:48:35;8.80;99.90
51908;DHT22;39320;53.214;6.556;2022-11-15T02:51:02;8.80;99.90
51908;DHT22;39320;53.214;6.556;2022-11-15T02:53:28;8.80;99.90
51908;DHT22;39320;53.214;6.556;2022-11-15T02:55:55;8.80;99.90
51908;DHT22;39320;53.214;6.556;2022-11-15T03:06:55;8.90;99.90
51908;DHT22;39320;53.214;6.556;2022-11-15T03:15:18;8.90;99.90
51908;DHT22;39320;53.214;6.556;2022-11-15T03:17:50;8.90;99.90
51908;DHT22;39320;53.214;6.556;2022-11-15T03:20:17;8.90;99.90
51908;DHT22;39320;53.214;6.556;2022-11-15T03:22:46;9.00;99.90
51908;DHT22;39320;53.214;6.556;2022-11-15T03:25:19;8.90;99.90
51908;DHT22;39320;53.214;6.556;2022-11-15T03:27:52;9.00;99.90
51908;DHT22;39320;53.214;6.556;2022-11-15T03:30:19;9.00;99.90
51908;DHT22;39320;53.214;6.556;2022-11-15T03:32:56;9.00;99.90
51908;DHT22;39320;53.214;6.556;2022-11-15T03:35:24;9.00;99.90
51908;DHT22;39320;53.214;6.556;2022-11-15T03:38:25;9.00;99.90
51908;DHT22;39320;53.214;6.556;2022-11-15T03:41:05;9.00;99.90
51908;DHT22;39320;53.214;6.556;2022-11-15T03:43:48;9.00;99.90
51908;DHT22;39320;53.214;6.556;2022-11-15T03:46:19;9.00;99.90
51908;DHT22;39320;53.214;6.556;2022-11-15T03:48:51;9.00;99.90
51908;DHT22;39320;53.214;6.556;2022-11-15T03:51:18;9.00;99.90
51908;DHT22;39320;53.214;6.556;2022-11-15T03:53:45;9.00;99.90
51908;DHT22;39320;53.214;6.556;2022-11-15T03:56:11;9.00;99.90
51908;DHT22;39320;53.214;6.556;2022-11-15T03:58:36;9.00;99.90
51908;DHT22;39320;53.214;6.556;2022-11-15T04:01:02;9.00;99.90
51908;DHT22;39320;53.214;6.556;2022-11-15T04:03:28;9.10;99.90
51908;DHT22;39320;53.214;6.556;2022-11-15T04:05:53;9.00;99.90
51908;DHT22;39320;53.214;6.556;2022-11-15T04:08:19;9.10;99.90
51908;DHT22;39320;53.214;6.556;2022-11-15T04:10:45;9.10;99.90
51908;DHT22;39320;53.214;6.556;2022-11-15T04:13:11;9.10;99.90
51908;DHT22;39320;53.214;6.556;2022-11-15T04:15:36;9.10;99.90
51908;DHT22;39320;53.214;6.556;2022-11-15T04:18:02;9.10;99.90
51908;DHT22;39320;53.214;6.556;2022-11-15T04:20:29;9.10;99.90
51908;DHT22;39320;53.214;6.556;2022-11-15T04:23:19;9.10;99.90
51908;DHT22;39320;53.214;6.556;2022-11-15T04:26:09;9.10;99.90
51908;DHT22;39320;53.214;6.556;2022-11-15T04:28:36;9.30;99.90
51908;DHT22;39320;53.214;6.556;2022-11-15T04:31:25;9.10;99.90
51908;DHT22;39320;53.214;6.556;2022-11-15T04:33:51;9.20;99.90
51908;DHT22;39320;53.214;6.556;2022-11-15T04:36:17;9.20;99.90
51908;DHT22;39320;53.214;6.556;2022-11-15T04:39:01;9.20;99.90
51908;DHT22;39320;53.214;6.556;2022-11-15T04:41:26;9.50;99.90
51908;DHT22;39320;53.214;6.556;2022-11-15T04:43:52;9.20;99.90
51908;DHT22;39320;53.214;6.556;2022-11-15T04:46:18;9.20;99.90
51908;DHT22;39320;53.214;6.556;2022-11-15T04:48:43;9.20;99.90
51908;DHT22;39320;53.214;6.556;2022-11-15T04:51:09;9.20;99.90
51908;DHT22;39320;53.214;6.556;2022-11-15T04:53:35;9.30;99.90
51908;DHT22;39320;53.214;6.556;2022-11-15T04:56:00;9.30;99.90
51908;DHT22;39320;53.214;6.556;2022-11-15T04:58:26;9.30;99.90
51908;DHT22;39320;53.214;6.556;2022-11-15T05:00:52;9.30;99.90
51908;DHT22;39320;53.214;6.556;2022-11-15T05:03:17;9.30;99.90
51908;DHT22;39320;53.214;6.556;2022-11-15T05:06:01;9.30;99.90
51908;DHT22;39320;53.214;6.556;2022-11-15T05:08:27;9.30;99.90
51908;DHT22;39320;53.214;6.556;2022-11-15T05:10:53;9.30;99.90
51908;DHT22;39320;53.214;6.556;2022-11-15T05:13:18;9.30;99.90
51908;DHT22;39320;53.214;6.556;2022-11-15T05:15:44;9.30;99.90
51908;DHT22;39320;53.214;6.556;2022-11-15T05:18:10;9.30;99.90
51908;DHT22;39320;53.214;6.556;2022-11-15T05:20:36;9.30;99.90
51908;DHT22;39320;53.214;6.556;2022-11-15T05:23:02;9.30;99.90
51908;DHT22;39320;53.214;6.556;2022-11-15T05:25:27;9.30;99.90
51908;DHT22;39320;53.214;6.556;2022-11-15T05:27:53;9.40;99.90
51908;DHT22;39320;53.214;6.556;2022-11-15T05:30:19;9.40;99.90
51908;DHT22;39320;53.214;6.556;2022-11-15T05:32:45;9.40;99.90
51908;DHT22;39320;53.214;6.556;2022-11-15T05:35:37;9.40;99.90
51908;DHT22;39320;53.214;6.556;2022-11-15T05:38:00;9.40;99.90
51908;DHT22;39320;53.214;6.556;2022-11-15T05:40:27;9.40;99.90
51908;DHT22;39320;53.214;6.556;2022-11-15T05:42:54;9.40;99.90
51908;DHT22;39320;53.214;6.556;2022-11-15T05:45:19;9.40;99.90
51908;DHT22;39320;53.214;6.556;2022-11-15T05:47:46;9.40;99.90
51908;DHT22;39320;53.214;6.556;2022-11-15T05:50:14;9.40;99.90
51908;DHT22;39320;53.214;6.556;2022-11-15T05:52:41;9.50;99.90
51908;DHT22;39320;53.214;6.556;2022-11-15T05:55:08;9.50;99.90
51908;DHT22;39320;53.214;6.556;2022-11-15T05:57:34;9.50;99.90
51908;DHT22;39320;53.214;6.556;2022-11-15T06:00:02;9.50;99.90
51908;DHT22;39320;53.214;6.556;2022-11-15T06:02:28;9.50;99.90
51908;DHT22;39320;53.214;6.556;2022-11-15T06:04:54;9.50;99.90
51908;DHT22;39320;53.214;6.556;2022-11-15T06:07:19;9.60;99.90
51908;DHT22;39320;53.214;6.556;2022-11-15T06:09:45;9.60;99.90
51908;DHT22;39320;53.214;6.556;2022-11-15T06:12:11;9.60;99.90
51908;DHT22;39320;53.214;6.556;2022-11-15T06:14:36;9.60;99.90
51908;DHT22;39320;53.214;6.556;2022-11-15T06:17:02;9.60;99.90
51908;DHT22;39320;53.214;6.556;2022-11-15T06:19:28;9.60;99.90
51908;DHT22;39320;53.214;6.556;2022-11-15T06:21:59;9.60;99.90
51908;DHT22;39320;53.214;6.556;2022-11-15T06:24:25;9.70;99.90
51908;DHT22;39320;53.214;6.556;2022-11-15T06:26:50;9.70;99.90
51908;DHT22;39320;53.214;6.556;2022-11-15T06:29:16;9.70;99.90
51908;DHT22;39320;53.214;6.556;2022-11-15T06:31:42;9.70;99.90
51908;DHT22;39320;53.214;6.556;2022-11-15T06:34:08;9.70;99.90
51908;DHT22;39320;53.214;6.556;2022-11-15T06:36:36;9.70;99.90
51908;DHT22;39320;53.214;6.556;2022-11-15T06:39:03;9.80;99.90
51908;DHT22;39320;53.214;6.556;2022-11-15T06:41:29;9.80;99.90
51908;DHT22;39320;53.214;6.556;2022-11-15T06:43:56;9.80;99.90
51908;DHT22;39320;53.214;6.556;2022-11-15T06:46:21;9.80;99.90
51908;DHT22;39320;53.214;6.556;2022-11-15T06:48:47;9.80;99.90
51908;DHT22;39320;53.214;6.556;2022-11-15T06:51:14;9.90;99.90
51908;DHT22;39320;53.214;6.556;2022-11-15T06:53:40;9.90;99.90
51908;DHT22;39320;53.214;6.556;2022-11-15T06:56:06;9.90;99.90
51908;DHT22;39320;53.214;6.556;2022-11-15T06:58:33;9.90;99.90
51908;DHT22;39320;53.214;6.556;2022-11-15T07:01:05;9.90;99.90
51908;DHT22;39320;53.214;6.556;2022-11-15T07:03:31;10.00;99.90
51908;DHT22;39320;53.214;6.556;2022-11-15T07:05:57;10.00;99.90
51908;DHT22;39320;53.214;6.556;2022-11-15T07:08:24;10.00;99.90
51908;DHT22;39320;53.214;6.556;2022-11-15T07:10:51;10.00;99.90
51908;DHT22;39320;53.214;6.556;2022-11-15T07:13:17;10.00;99.90
51908;DHT22;39320;53.214;6.556;2022-11-15T07:15:43;10.10;99.90
51908;DHT22;39320;53.214;6.556;2022-11-15T07:18:09;10.10;99.90
51908;DHT22;39320;53.214;6.556;2022-11-15T07:20:35;10.10;99.90
51908;DHT22;39320;53.214;6.556;2022-11-15T07:23:02;10.10;99.90
51908;DHT22;39320;53.214;6.556;2022-11-15T07:25:28;10.10;99.90
51908;DHT22;39320;53.214;6.556;2022-11-15T07:27:55;10.20;99.90
51908;DHT22;39320;53.214;6.556;2022-11-15T07:30:22;10.20;99.90
51908;DHT22;39320;53.214;6.556;2022-11-15T07:32:55;10.20;99.90
51908;DHT22;39320;53.214;6.556;2022-11-15T07:35:21;10.20;99.90
51908;DHT22;39320;53.214;6.556;2022-11-15T07:37:59;10.20;99.90
51908;DHT22;39320;53.214;6.556;2022-11-15T07:40:29;10.30;99.90
51908;DHT22;39320;53.214;6.556;2022-11-15T07:43:03;10.30;99.90
51908;DHT22;39320;53.214;6.556;2022-11-15T07:45:29;10.30;99.90
51908;DHT22;39320;53.214;6.556;2022-11-15T07:47:55;10.30;99.90
51908;DHT22;39320;53.214;6.556;2022-11-15T07:50:22;10.30;99.90
51908;DHT22;39320;53.214;6.556;2022-11-15T07:52:53;10.30;99.90
51908;DHT22;39320;53.214;6.556;2022-11-15T07:55:19;10.40;99.90
51908;DHT22;39320;53.214;6.556;2022-11-15T07:57:45;10.40;99.90
51908;DHT22;39320;53.214;6.556;2022-11-15T08:00:11;10.40;99.90
51908;DHT22;39320;53.214;6.556;2022-11-15T08:02:37;10.40;99.90
51908;DHT22;39320;53.214;6.556;2022-11-15T08:05:03;10.40;99.90
51908;DHT22;39320;53.214;6.556;2022-11-15T08:07:30;10.40;99.90
51908;DHT22;39320;53.214;6.556;2022-11-15T08:09:56;10.40;99.90
51908;DHT22;39320;53.214;6.556;2022-11-15T08:12:22;10.50;99.90
51908;DHT22;39320;53.214;6.556;2022-11-15T08:14:47;10.50;99.90
51908;DHT22;39320;53.214;6.556;2022-11-15T08:17:14;10.50;99.90
51908;DHT22;39320;53.214;6.556;2022-11-15T08:19:39;10.50;99.90
51908;DHT22;39320;53.214;6.556;2022-11-15T08:22:05;10.50;99.90
51908;DHT22;39320;53.214;6.556;2022-11-15T08:24:31;10.60;99.90
51908;DHT22;39320;53.214;6.556;2022-11-15T08:26:56;10.60;99.90
51908;DHT22;39320;53.214;6.556;2022-11-15T08:29:22;10.50;99.90
51908;DHT22;39320;53.214;6.556;2022-11-15T08:31:48;10.60;99.90
51908;DHT22;39320;53.214;6.556;2022-11-15T08:34:14;10.60;99.90
51908;DHT22;39320;53.214;6.556;2022-11-15T08:36:40;10.60;99.90
51908;DHT22;39320;53.214;6.556;2022-11-15T08:39:05;10.70;99.90
51908;DHT22;39320;53.214;6.556;2022-11-15T08:41:35;10.70;99.90
51908;DHT22;39320;53.214;6.556;2022-11-15T08:44:01;10.70;99.90
51908;DHT22;39320;53.214;6.556;2022-11-15T08:46:27;10.70;99.90
51908;DHT22;39320;53.214;6.556;2022-11-15T08:48:53;10.70;99.90
51908;DHT22;39320;53.214;6.556;2022-11-15T08:51:18;10.70;99.90
51908;DHT22;39320;53.214;6.556;2022-11-15T08:53:44;10.80;99.90
51908;DHT22;39320;53.214;6.556;2022-11-15T08:56:11;10.70;99.90
51908;DHT22;39320;53.214;6.556;2022-11-15T08:58:37;10.80;99.90
51908;DHT22;39320;53.214;6.556;2022-11-15T09:01:04;10.80;99.90
51908;DHT22;39320;53.214;6.556;2022-11-15T09:03:30;10.80;99.90
51908;DHT22;39320;53.214;6.556;2022-11-15T09:05:58;10.70;99.90
51908;DHT22;39320;53.214;6.556;2022-11-15T09:08:24;11.00;99.90
51908;DHT22;39320;53.214;6.556;2022-11-15T09:10:51;10.90;99.90
51908;DHT22;39320;53.214;6.556;2022-11-15T09:13:17;10.90;99.90
51908;DHT22;39320;53.214;6.556;2022-11-15T09:15:43;10.90;99.90
51908;DHT22;39320;53.214;6.556;2022-11-15T09:18:08;11.00;99.90
51908;DHT22;39320;53.214;6.556;2022-11-15T09:20:34;11.00;99.90
51908;DHT22;39320;53.214;6.556;2022-11-15T09:23:04;11.00;99.90
51908;DHT22;39320;53.214;6.556;2022-11-15T09:25:30;11.00;99.90
51908;DHT22;39320;53.214;6.556;2022-11-15T09:27:57;11.10;99.90
51908;DHT22;39320;53.214;6.556;2022-11-15T09:30:24;11.10;99.90
51908;DHT22;39320;53.214;6.556;2022-11-15T09:32:49;11.10;99.90
51908;DHT22;39320;53.214;6.556;2022-11-15T09:35:15;11.10;99.90
51908;DHT22;39320;53.214;6.556;2022-11-15T09:37:41;11.10;99.90
51908;DHT22;39320;53.214;6.556;2022-11-15T09:40:13;11.10;99.90
51908;DHT22;39320;53.214;6.556;2022-11-15T09:42:58;11.10;99.90
51908;DHT22;39320;53.214;6.556;2022-11-15T09:45:37;11.20;99.90
51908;DHT22;39320;53.214;6.556;2022-11-15T09:48:17;11.20;99.90
51908;DHT22;39320;53.214;6.556;2022-11-15T09:50:51;11.20;99.90
51908;DHT22;39320;53.214;6.556;2022-11-15T09:53:25;11.20;99.90
51908;DHT22;39320;53.214;6.556;2022-11-15T09:56:00;11.20;99.90
51908;DHT22;39320;53.214;6.556;2022-11-15T09:58:55;11.20;99.90
51908;DHT22;39320;53.214;6.556;2022-11-15T10:04:11;11.30;99.90
51908;DHT22;39320;53.214;6.556;2022-11-15T10:06:41;11.30;99.90
51908;DHT22;39320;53.214;6.556;2022-11-15T10:09:14;11.20;99.90
51908;DHT22;39320;53.214;6.556;2022-11-15T10:11:41;11.30;99.90
51908;DHT22;39320;53.214;6.556;2022-11-15T10:14:15;11.30;99.90
51908;DHT22;39320;53.214;6.556;2022-11-15T10:20:17;11.30;99.90
51908;DHT22;39320;53.214;6.556;2022-11-15T10:25:22;11.30;99.90
51908;DHT22;39320;53.214;6.556;2022-11-15T10:30:38;11.40;99.90
51908;DHT22;39320;53.214;6.556;2022-11-15T10:33:34;11.40;99.90
51908;DHT22;39320;53.214;6.556;2022-11-15T10:46:28;11.40;99.90
51908;DHT22;39320;53.214;6.556;2022-11-15T10:51:51;11.40;99.90
51908;DHT22;39320;53.214;6.556;2022-11-15T10:56:54;11.50;99.90
51908;DHT22;39320;53.214;6.556;2022-11-15T10:59:28;11.50;99.90
51908;DHT22;39320;53.214;6.556;2022-11-15T11:01:55;11.50;99.90
51908;DHT22;39320;53.214;6.556;2022-11-15T11:04:20;11.50;99.90
51908;DHT22;39320;53.214;6.556;2022-11-15T11:06:48;11.50;99.90
51908;DHT22;39320;53.214;6.556;2022-11-15T11:09:28;11.60;99.90
51908;DHT22;39320;53.214;6.556;2022-11-15T11:11:55;11.50;99.90
51908;DHT22;39320;53.214;6.556;2022-11-15T11:14:32;11.50;99.90
51908;DHT22;39320;53.214;6.556;2022-11-15T11:20:00;11.50;99.90
51908;DHT22;39320;53.214;6.556;2022-11-15T11:28:25;11.60;99.90
51908;DHT22;39320;53.214;6.556;2022-11-15T11:31:24;11.60;99.90
51908;DHT22;39320;53.214;6.556;2022-11-15T11:34:00;11.60;99.90
51908;DHT22;39320;53.214;6.556;2022-11-15T11:39:21;11.60;99.90
51908;DHT22;39320;53.214;6.556;2022-11-15T11:44:57;11.60;99.90
51908;DHT22;39320;53.214;6.556;2022-11-15T11:47:31;11.70;99.90
51908;DHT22;39320;53.214;6.556;2022-11-15T11:50:00;11.60;99.90
51908;DHT22;39320;53.214;6.556;2022-11-15T11:55:21;11.80;99.90
51908;DHT22;39320;53.214;6.556;2022-11-15T12:00:24;11.90;99.90
51908;DHT22;39320;53.214;6.556;2022-11-15T12:03:11;12.00;99.90
51908;DHT22;39320;53.214;6.556;2022-11-15T12:06:02;12.10;99.90
51908;DHT22;39320;53.214;6.556;2022-11-15T12:08:52;12.10;99.90
51908;DHT22;39320;53.214;6.556;2022-11-15T12:12:06;12.10;99.90
51908;DHT22;39320;53.214;6.556;2022-11-15T13:26:14;12.70;99.90
51908;DHT22;39320;53.214;6.556;2022-11-15T13:28:47;12.70;99.90
51908;DHT22;39320;53.214;6.556;2022-11-15T13:33:44;12.70;99.90
51908;DHT22;39320;53.214;6.556;2022-11-15T13:36:15;12.60;99.90
51908;DHT22;39320;53.214;6.556;2022-11-15T13:38:44;12.60;99.90
51908;DHT22;39320;53.214;6.556;2022-11-15T13:41:24;12.60;99.90
51908;DHT22;39320;53.214;6.556;2022-11-15T13:43:51;12.60;99.90
51908;DHT22;39320;53.214;6.556;2022-11-15T13:46:23;12.50;99.90
51908;DHT22;39320;53.214;6.556;2022-11-15T13:49:04;12.50;99.90
51908;DHT22;39320;53.214;6.556;2022-11-15T13:54:24;12.60;99.90
51908;DHT22;39320;53.214;6.556;2022-11-15T13:56:52;12.60;99.90
51908;DHT22;39320;53.214;6.556;2022-11-15T13:59:26;12.70;99.90
51908;DHT22;39320;53.214;6.556;2022-11-15T14:01:54;12.80;99.90
51908;DHT22;39320;53.214;6.556;2022-11-15T14:04:23;12.80;99.90
51908;DHT22;39320;53.214;6.556;2022-11-15T14:06:51;12.80;99.90
51908;DHT22;39320;53.214;6.556;2022-11-15T14:11:58;12.80;99.90
51908;DHT22;39320;53.214;6.556;2022-11-15T14:14:26;12.80;99.90
51908;DHT22;39320;53.214;6.556;2022-11-15T14:16:57;12.80;99.90
51908;DHT22;39320;53.214;6.556;2022-11-15T14:24:37;12.70;99.90
51908;DHT22;39320;53.214;6.556;2022-11-15T14:29:44;12.70;99.90
51908;DHT22;39320;53.214;6.556;2022-11-15T14:32:21;12.70;99.90
51908;DHT22;39320;53.214;6.556;2022-11-15T14:34:49;12.60;99.90
51908;DHT22;39320;53.214;6.556;2022-11-15T14:37:29;12.60;99.90
51908;DHT22;39320;53.214;6.556;2022-11-15T14:40:03;12.60;99.90
51908;DHT22;39320;53.214;6.556;2022-11-15T14:42:30;12.50;99.90
51908;DHT22;39320;53.214;6.556;2022-11-15T14:44:56;12.50;99.90
51908;DHT22;39320;53.214;6.556;2022-11-15T14:47:21;12.50;99.90
51908;DHT22;39320;53.214;6.556;2022-11-15T14:49:47;12.40;99.90
51908;DHT22;39320;53.214;6.556;2022-11-15T14:52:23;12.40;99.90
51908;DHT22;39320;53.214;6.556;2022-11-15T14:54:49;12.40;99.90
51908;DHT22;39320;53.214;6.556;2022-11-15T14:57:15;12.40;99.90
51908;DHT22;39320;53.214;6.556;2022-11-15T14:59:41;12.40;99.90
51908;DHT22;39320;53.214;6.556;2022-11-15T15:02:19;12.30;99.90
51908;DHT22;39320;53.214;6.556;2022-11-15T15:04:46;12.30;99.90
51908;DHT22;39320;53.214;6.556;2022-11-15T15:07:12;12.20;99.90
51908;DHT22;39320;53.214;6.556;2022-11-15T15:09:38;12.20;99.90
51908;DHT22;39320;53.214;6.556;2022-11-15T15:12:04;12.20;99.90
51908;DHT22;39320;53.214;6.556;2022-11-15T15:14:32;12.10;99.90
51908;DHT22;39320;53.214;6.556;2022-11-15T15:16:58;12.10;99.90
51908;DHT22;39320;53.214;6.556;2022-11-15T15:19:23;12.10;99.90
51908;DHT22;39320;53.214;6.556;2022-11-15T15:21:49;12.10;99.90
51908;DHT22;39320;53.214;6.556;2022-11-15T15:24:15;12.00;99.90
51908;DHT22;39320;53.214;6.556;2022-11-15T15:26:41;12.00;99.90
51908;DHT22;39320;53.214;6.556;2022-11-15T15:29:09;12.00;99.90
51908;DHT22;39320;53.214;6.556;2022-11-15T15:31:35;11.90;99.90
51908;DHT22;39320;53.214;6.556;2022-11-15T15:34:01;11.90;99.90
51908;DHT22;39320;53.214;6.556;2022-11-15T15:36:27;11.90;99.90
51908;DHT22;39320;53.214;6.556;2022-11-15T15:38:52;11.90;99.90
51908;DHT22;39320;53.214;6.556;2022-11-15T15:41:18;11.90;99.90
51908;DHT22;39320;53.214;6.556;2022-11-15T15:43:44;11.80;99.90
51908;DHT22;39320;53.214;6.556;2022-11-15T15:46:18;11.90;99.90
51908;DHT22;39320;53.214;6.556;2022-11-15T15:48:44;11.80;99.90
51908;DHT22;39320;53.214;6.556;2022-11-15T15:51:10;11.80;99.90
51908;DHT22;39320;53.214;6.556;2022-11-15T15:53:37;11.80;99.90
51908;DHT22;39320;53.214;6.556;2022-11-15T15:56:03;11.80;99.90
51908;DHT22;39320;53.214;6.556;2022-11-15T15:58:29;11.70;99.90
51908;DHT22;39320;53.214;6.556;2022-11-15T16:00:57;11.70;99.90
51908;DHT22;39320;53.214;6.556;2022-11-15T16:03:23;11.70;99.90
51908;DHT22;39320;53.214;6.556;2022-11-15T16:05:50;11.70;99.90
51908;DHT22;39320;53.214;6.556;2022-11-15T16:08:19;11.70;99.90
51908;DHT22;39320;53.214;6.556;2022-11-15T16:10:45;11.70;99.90
51908;DHT22;39320;53.214;6.556;2022-11-15T16:13:10;11.60;99.90
51908;DHT22;39320;53.214;6.556;2022-11-15T16:15:36;11.60;99.90
51908;DHT22;39320;53.214;6.556;2022-11-15T16:18:03;11.60;99.90
51908;DHT22;39320;53.214;6.556;2022-11-15T16:20:43;11.60;99.90
51908;DHT22;39320;53.214;6.556;2022-11-15T16:23:12;11.60;99.90
51908;DHT22;39320;53.214;6.556;2022-11-15T16:25:45;11.50;99.90
51908;DHT22;39320;53.214;6.556;2022-11-15T16:28:31;11.50;99.90
51908;DHT22;39320;53.214;6.556;2022-11-15T16:31:08;11.50;99.90
51908;DHT22;39320;53.214;6.556;2022-11-15T16:33:34;11.50;99.90
51908;DHT22;39320;53.214;6.556;2022-11-15T16:36:00;11.50;99.90
51908;DHT22;39320;53.214;6.556;2022-11-15T16:38:26;11.40;99.90
51908;DHT22;39320;53.214;6.556;2022-11-15T16:40:52;11.50;99.90
51908;DHT22;39320;53.214;6.556;2022-11-15T16:43:17;11.50;99.90
51908;DHT22;39320;53.214;6.556;2022-11-15T16:45:43;11.50;99.90
51908;DHT22;39320;53.214;6.556;2022-11-15T16:48:26;11.50;99.90
51908;DHT22;39320;53.214;6.556;2022-11-15T16:50:57;11.50;99.90
51908;DHT22;39320;53.214;6.556;2022-11-15T16:53:24;11.50;99.90
51908;DHT22;39320;53.214;6.556;2022-11-15T16:55:50;11.50;99.90
51908;DHT22;39320;53.214;6.556;2022-11-15T16:58:15;11.50;99.90
51908;DHT22;39320;53.214;6.556;2022-11-15T17:00:41;11.40;99.90
51908;DHT22;39320;53.214;6.556;2022-11-15T17:03:07;11.50;99.90
51908;DHT22;39320;53.214;6.556;2022-11-15T17:05:33;11.50;99.90
51908;DHT22;39320;53.214;6.556;2022-11-15T17:07:59;11.50;99.90
51908;DHT22;39320;53.214;6.556;2022-11-15T17:10:25;11.50;99.90
51908;DHT22;39320;53.214;6.556;2022-11-15T17:12:52;11.50;99.90
51908;DHT22;39320;53.214;6.556;2022-11-15T17:15:19;11.50;99.90
51908;DHT22;39320;53.214;6.556;2022-11-15T17:17:51;11.50;99.90
51908;DHT22;39320;53.214;6.556;2022-11-15T17:20:18;11.50;99.90
51908;DHT22;39320;53.214;6.556;2022-11-15T17:22:44;11.50;99.90
51908;DHT22;39320;53.214;6.556;2022-11-15T17:25:12;11.50;99.90
51908;DHT22;39320;53.214;6.556;2022-11-15T17:27:38;11.60;99.90
51908;DHT22;39320;53.214;6.556;2022-11-15T17:30:05;11.50;99.90
51908;DHT22;39320;53.214;6.556;2022-11-15T17:32:31;11.60;99.90
51908;DHT22;39320;53.214;6.556;2022-11-15T17:34:57;11.50;99.90
51908;DHT22;39320;53.214;6.556;2022-11-15T17:37:22;11.60;99.90
51908;DHT22;39320;53.214;6.556;2022-11-15T17:39:48;11.60;99.90
51908;DHT22;39320;53.214;6.556;2022-11-15T17:42:14;11.50;99.90
51908;DHT22;39320;53.214;6.556;2022-11-15T17:44:39;11.50;99.90
51908;DHT22;39320;53.214;6.556;2022-11-15T17:47:05;11.50;99.90
51908;DHT22;39320;53.214;6.556;2022-11-15T17:49:32;11.50;99.90
51908;DHT22;39320;53.214;6.556;2022-11-15T17:52:02;11.50;99.90
51908;DHT22;39320;53.214;6.556;2022-11-15T17:54:28;11.50;99.90
51908;DHT22;39320;53.214;6.556;2022-11-15T17:56:54;11.50;99.90
51908;DHT22;39320;53.214;6.556;2022-11-15T17:59:19;11.50;99.90
51908;DHT22;39320;53.214;6.556;2022-11-15T18:01:45;11.50;99.90
51908;DHT22;39320;53.214;6.556;2022-11-15T18:04:11;11.50;99.90
51908;DHT22;39320;53.214;6.556;2022-11-15T18:06:39;11.50;99.90
51908;DHT22;39320;53.214;6.556;2022-11-15T18:09:06;11.50;99.90
51908;DHT22;39320;53.214;6.556;2022-11-15T18:11:40;11.50;99.90
51908;DHT22;39320;53.214;6.556;2022-11-15T18:14:12;11.50;99.90
51908;DHT22;39320;53.214;6.556;2022-11-15T18:16:39;11.50;99.90
51908;DHT22;39320;53.214;6.556;2022-11-15T18:19:05;11.50;99.90
51908;DHT22;39320;53.214;6.556;2022-11-15T18:21:38;11.50;99.90
51908;DHT22;39320;53.214;6.556;2022-11-15T18:24:29;11.50;99.90
51908;DHT22;39320;53.214;6.556;2022-11-15T18:26:56;11.50;99.90
51908;DHT22;39320;53.214;6.556;2022-11-15T18:29:22;11.50;99.90
51908;DHT22;39320;53.214;6.556;2022-11-15T18:31:49;11.50;99.90
51908;DHT22;39320;53.214;6.556;2022-11-15T18:34:19;11.50;99.90
51908;DHT22;39320;53.214;6.556;2022-11-15T18:36:49;11.40;99.90